sensor_id;sensor_type;location;lat;lon;timestamp;pressure;altitude;pressure_sealevel;temperature;humidity
13407;BME280;6774;48.208;10.766;2024-03-17T00:02:17;96255.88;;;9.66;88.10
13407;BME280;6774;48.208;10.766;2024-03-17T00:04:45;96267.06;;;9.68;87.76
13407;BME280;6774;48.208;10.766;2024-03-17T00:07:12;96274.84;;;9.69;87.71
13407;BME280;6774;48.208;10.766;2024-03-17T00:09:40;96269.38;;;9.63;87.48
13407;BME280;6774;48.208;10.766;2024-03-17T00:12:07;96272.69;;;9.65;87.69
13407;BME280;6774;48.208;10.766;2024-03-17T00:14:34;96267.75;;;9.62;87.88
13407;BME280;6774;48.208;10.766;2024-03-17T00:17:00;96262.47;;;9.62;88.36
13407;BME280;6774;48.208;10.766;2024-03-17T00:19:27;96264.13;;;9.63;87.78
13407;BME280;6774;48.208;10.766;2024-03-17T00:21:53;96262.13;;;9.65;88.04
13407;BME280;6774;48.208;10.766;2024-03-17T00:24:21;96262.97;;;9.65;88.41
13407;BME280;6774;48.208;10.766;2024-03-17T00:26:47;96249.31;;;9.70;88.25
13407;BME280;6774;48.208;10.766;2024-03-17T00:29:15;96250.94;;;9.71;88.34
13407;BME280;6774;48.208;10.766;2024-03-17T00:31:41;96247.31;;;9.72;88.16
13407;BME280;6774;48.208;10.766;2024-03-17T00:34:08;96233.16;;;9.73;88.30
13407;BME280;6774;48.208;10.766;2024-03-17T00:36:34;96234.16;;;9.72;88.05
13407;BME280;6774;48.208;10.766;2024-03-17T00:39:02;96231.81;;;9.69;88.21
13407;BME280;6774;48.208;10.766;2024-03-17T00:41:30;96229.84;;;9.63;88.34
13407;BME280;6774;48.208;10.766;2024-03-17T00:43:57;96230.50;;;9.49;87.59
13407;BME280;6774;48.208;10.766;2024-03-17T00:46:22;96235.09;;;9.38;87.37
13407;BME280;6774;48.208;10.766;2024-03-17T00:48:49;96229.81;;;9.38;87.87
13407;BME280;6774;48.208;10.766;2024-03-17T00:51:16;96228.50;;;9.34;88.07
13407;BME280;6774;48.208;10.766;2024-03-17T00:53:43;96235.06;;;9.30;87.78
13407;BME280;6774;48.208;10.766;2024-03-17T00:56:09;96227.16;;;9.30;87.64
13407;BME280;6774;48.208;10.766;2024-03-17T00:58:37;96230.78;;;9.29;87.25
13407;BME280;6774;48.208;10.766;2024-03-17T01:01:04;96223.88;;;9.28;87.25
13407;BME280;6774;48.208;10.766;2024-03-17T01:03:31;96224.22;;;9.25;87.62
13407;BME280;6774;48.208;10.766;2024-03-17T01:05:56;96214.00;;;9.22;87.13
13407;BME280;6774;48.208;10.766;2024-03-17T01:08:23;96218.75;;;9.19;87.23
13407;BME280;6774;48.208;10.766;2024-03-17T01:10:49;96222.84;;;9.13;87.38
13407;BME280;6774;48.208;10.766;2024-03-17T01:13:17;96215.63;;;9.07;87.21
13407;BME280;6774;48.208;10.766;2024-03-17T01:15:44;96226.78;;;9.01;87.11
13407;BME280;6774;48.208;10.766;2024-03-17T01:18:11;96222.47;;;8.92;87.12
13407;BME280;6774;48.208;10.766;2024-03-17T01:20:38;96222.28;;;8.85;87.30
13407;BME280;6774;48.208;10.766;2024-03-17T01:23:05;96219.81;;;8.83;87.06
13407;BME280;6774;48.208;10.766;2024-03-17T01:25:33;96215.91;;;8.88;87.36
13407;BME280;6774;48.208;10.766;2024-03-17T01:28:01;96208.00;;;8.88;87.36
13407;BME280;6774;48.208;10.766;2024-03-17T01:30:27;96204.53;;;8.87;87.21
13407;BME280;6774;48.208;10.766;2024-03-17T01:32:56;96208.47;;;8.83;86.91
13407;BME280;6774;48.208;10.766;2024-03-17T01:35:22;96207.16;;;8.79;86.70
13407;BME280;6774;48.208;10.766;2024-03-17T01:37:49;96207.28;;;8.69;86.97
13407;BME280;6774;48.208;10.766;2024-03-17T01:40:14;96211.56;;;8.70;86.41
13407;BME280;6774;48.208;10.766;2024-03-17T01:42:41;96203.91;;;8.59;86.66
13407;BME280;6774;48.208;10.766;2024-03-17T01:45:24;96206.88;;;8.56;86.65
13407;BME280;6774;48.208;10.766;2024-03-17T01:47:52;96198.78;;;8.41;87.29
13407;BME280;6774;48.208;10.766;2024-03-17T01:50:19;96198.56;;;8.35;87.64
13407;BME280;6774;48.208;10.766;2024-03-17T01:52:52;96195.28;;;8.41;87.48
13407;BME280;6774;48.208;10.766;2024-03-17T01:55:20;96191.84;;;8.40;88.08
13407;BME280;6774;48.208;10.766;2024-03-17T01:57:49;96192.03;;;8.47;87.90
13407;BME280;6774;48.208;10.766;2024-03-17T02:00:18;96198.31;;;8.54;87.96
13407;BME280;6774;48.208;10.766;2024-03-17T02:02:45;96189.13;;;8.58;88.41
13407;BME280;6774;48.208;10.766;2024-03-17T02:05:14;96188.81;;;8.61;88.38
13407;BME280;6774;48.208;10.766;2024-03-17T02:07:43;96184.88;;;8.65;88.11
13407;BME280;6774;48.208;10.766;2024-03-17T02:10:11;96183.59;;;8.69;88.35
13407;BME280;6774;48.208;10.766;2024-03-17T02:12:40;96178.16;;;8.71;88.47
13407;BME280;6774;48.208;10.766;2024-03-17T02:15:09;96177.00;;;8.73;88.58
13407;BME280;6774;48.208;10.766;2024-03-17T02:17:36;96177.00;;;8.73;88.25
13407;BME280;6774;48.208;10.766;2024-03-17T02:20:05;96162.88;;;8.74;88.67
13407;BME280;6774;48.208;10.766;2024-03-17T02:22:38;96164.53;;;8.75;88.71
13407;BME280;6774;48.208;10.766;2024-03-17T02:25:07;96170.09;;;8.72;88.30
13407;BME280;6774;48.208;10.766;2024-03-17T02:27:35;96172.25;;;8.69;88.26
13407;BME280;6774;48.208;10.766;2024-03-17T02:30:04;96167.94;;;8.68;88.40
13407;BME280;6774;48.208;10.766;2024-03-17T02:32:33;96168.47;;;8.71;88.49
13407;BME280;6774;48.208;10.766;2024-03-17T02:35:01;96163.19;;;8.71;88.31
13407;BME280;6774;48.208;10.766;2024-03-17T02:37:27;96169.63;;;8.69;88.32
13407;BME280;6774;48.208;10.766;2024-03-17T02:39:58;96167.66;;;8.71;88.51
13407;BME280;6774;48.208;10.766;2024-03-17T02:42:24;96161.56;;;8.70;88.57
13407;BME280;6774;48.208;10.766;2024-03-17T02:44:53;96162.53;;;8.69;88.61
13407;BME280;6774;48.208;10.766;2024-03-17T02:47:21;96157.75;;;8.65;89.16
13407;BME280;6774;48.208;10.766;2024-03-17T02:49:48;96167.44;;;8.64;88.95
13407;BME280;6774;48.208;10.766;2024-03-17T02:52:17;96155.47;;;8.70;88.82
13407;BME280;6774;48.208;10.766;2024-03-17T02:54:44;96158.94;;;8.70;89.06
13407;BME280;6774;48.208;10.766;2024-03-17T02:57:16;96158.75;;;8.72;89.06
13407;BME280;6774;48.208;10.766;2024-03-17T02:59:44;96154.97;;;8.74;89.03
13407;BME280;6774;48.208;10.766;2024-03-17T03:02:13;96153.16;;;8.75;89.02
13407;BME280;6774;48.208;10.766;2024-03-17T03:04:41;96153.81;;;8.77;88.46
13407;BME280;6774;48.208;10.766;2024-03-17T03:07:10;96153.97;;;8.67;88.88
13407;BME280;6774;48.208;10.766;2024-03-17T03:09:39;96148.44;;;8.78;89.03
13407;BME280;6774;48.208;10.766;2024-03-17T03:12:08;96154.84;;;8.84;88.39
13407;BME280;6774;48.208;10.766;2024-03-17T03:14:38;96148.09;;;8.81;88.64
13407;BME280;6774;48.208;10.766;2024-03-17T03:17:07;96154.19;;;8.82;88.61
13407;BME280;6774;48.208;10.766;2024-03-17T03:19:35;96148.09;;;8.81;88.21
13407;BME280;6774;48.208;10.766;2024-03-17T03:22:03;96146.44;;;8.80;88.01
13407;BME280;6774;48.208;10.766;2024-03-17T03:24:32;96142.19;;;8.79;87.98
13407;BME280;6774;48.208;10.766;2024-03-17T03:27:01;96145.94;;;8.77;88.02
13407;BME280;6774;48.208;10.766;2024-03-17T03:29:30;96148.72;;;8.75;88.08
13407;BME280;6774;48.208;10.766;2024-03-17T03:32:03;96139.50;;;8.63;88.57
13407;BME280;6774;48.208;10.766;2024-03-17T03:34:30;96142.63;;;8.67;88.59
13407;BME280;6774;48.208;10.766;2024-03-17T03:37:01;96145.75;;;8.62;88.48
13407;BME280;6774;48.208;10.766;2024-03-17T03:39:31;96133.91;;;8.66;88.35
13407;BME280;6774;48.208;10.766;2024-03-17T03:41:58;96137.53;;;8.65;88.05
13407;BME280;6774;48.208;10.766;2024-03-17T03:44:27;96136.88;;;8.63;88.11
13407;BME280;6774;48.208;10.766;2024-03-17T03:46:54;96130.63;;;8.64;88.31
13407;BME280;6774;48.208;10.766;2024-03-17T03:49:26;96136.22;;;8.61;88.51
13407;BME280;6774;48.208;10.766;2024-03-17T03:51:54;96132.59;;;8.62;88.61
13407;BME280;6774;48.208;10.766;2024-03-17T03:54:22;96139.50;;;8.63;88.03
13407;BME280;6774;48.208;10.766;2024-03-17T03:56:49;96134.41;;;8.62;88.04
13407;BME280;6774;48.208;10.766;2024-03-17T03:59:16;96130.59;;;8.56;87.77
13407;BME280;6774;48.208;10.766;2024-03-17T04:01:43;96130.59;;;8.56;88.09
13407;BME280;6774;48.208;10.766;2024-03-17T04:04:10;96130.59;;;8.56;88.28
13407;BME280;6774;48.208;10.766;2024-03-17T04:06:38;96131.56;;;8.55;88.32
13407;BME280;6774;48.208;10.766;2024-03-17T04:09:05;96135.53;;;8.51;88.40
13407;BME280;6774;48.208;10.766;2024-03-17T04:11:32;96123.66;;;8.47;88.06
13407;BME280;6774;48.208;10.766;2024-03-17T04:13:59;96129.88;;;8.38;88.17
13407;BME280;6774;48.208;10.766;2024-03-17T04:16:27;96128.59;;;8.16;87.95
13407;BME280;6774;48.208;10.766;2024-03-17T04:18:53;96128.75;;;8.14;88.25
13407;BME280;6774;48.208;10.766;2024-03-17T04:21:20;96122.47;;;8.07;88.14
13407;BME280;6774;48.208;10.766;2024-03-17T04:23:49;96139.91;;;8.08;87.87
13407;BME280;6774;48.208;10.766;2024-03-17T04:26:16;96132.63;;;8.02;87.71
13407;BME280;6774;48.208;10.766;2024-03-17T04:28:43;96124.41;;;7.97;87.31
13407;BME280;6774;48.208;10.766;2024-03-17T04:31:10;96128.63;;;7.90;88.08
13407;BME280;6774;48.208;10.766;2024-03-17T04:33:37;96132.25;;;7.89;87.90
13407;BME280;6774;48.208;10.766;2024-03-17T04:36:04;96124.34;;;7.89;88.07
13407;BME280;6774;48.208;10.766;2024-03-17T04:38:31;96120.75;;;7.90;88.04
13407;BME280;6774;48.208;10.766;2024-03-17T04:40:59;96121.41;;;7.92;88.33
13407;BME280;6774;48.208;10.766;2024-03-17T04:43:31;96115.50;;;7.90;88.13
13407;BME280;6774;48.208;10.766;2024-03-17T04:46:02;96129.94;;;7.94;88.19
13407;BME280;6774;48.208;10.766;2024-03-17T04:48:31;96131.56;;;7.87;88.69
13407;BME280;6774;48.208;10.766;2024-03-17T04:50:58;96129.28;;;7.92;88.49
13407;BME280;6774;48.208;10.766;2024-03-17T04:53:26;96136.50;;;7.90;88.54
13407;BME280;6774;48.208;10.766;2024-03-17T04:56:01;96129.13;;;7.93;88.82
13407;BME280;6774;48.208;10.766;2024-03-17T04:58:30;96138.81;;;7.93;88.76
13407;BME280;6774;48.208;10.766;2024-03-17T05:00:57;96143.09;;;7.94;89.01
13407;BME280;6774;48.208;10.766;2024-03-17T05:03:24;96132.28;;;7.97;88.61
13407;BME280;6774;48.208;10.766;2024-03-17T05:05:58;96147.22;;;7.96;88.41
13407;BME280;6774;48.208;10.766;2024-03-17T05:08:26;96148.88;;;7.97;88.32
13407;BME280;6774;48.208;10.766;2024-03-17T05:10:56;96148.06;;;7.97;88.64
13407;BME280;6774;48.208;10.766;2024-03-17T05:13:24;96150.25;;;7.84;89.33
13407;BME280;6774;48.208;10.766;2024-03-17T05:15:51;96142.44;;;7.66;89.83
13407;BME280;6774;48.208;10.766;2024-03-17T05:18:18;96139.41;;;7.79;89.81
13407;BME280;6774;48.208;10.766;2024-03-17T05:20:46;96142.38;;;7.84;89.50
13407;BME280;6774;48.208;10.766;2024-03-17T05:23:13;96137.78;;;7.86;89.22
13407;BME280;6774;48.208;10.766;2024-03-17T05:25:40;96144.72;;;7.95;89.10
13407;BME280;6774;48.208;10.766;2024-03-17T05:28:07;96143.81;;;8.04;89.14
13407;BME280;6774;48.208;10.766;2024-03-17T05:30:37;96141.03;;;8.06;88.98
13407;BME280;6774;48.208;10.766;2024-03-17T05:33:04;96141.88;;;8.06;89.07
13407;BME280;6774;48.208;10.766;2024-03-17T05:35:31;96141.53;;;8.09;89.26
13407;BME280;6774;48.208;10.766;2024-03-17T05:37:57;96144.53;;;8.14;89.17
13407;BME280;6774;48.208;10.766;2024-03-17T05:40:24;96142.41;;;8.18;88.97
13407;BME280;6774;48.208;10.766;2024-03-17T05:42:51;96143.06;;;8.20;89.22
13407;BME280;6774;48.208;10.766;2024-03-17T05:45:18;96142.63;;;8.24;88.88
13407;BME280;6774;48.208;10.766;2024-03-17T05:47:46;96145.53;;;8.21;88.93
13407;BME280;6774;48.208;10.766;2024-03-17T05:50:13;96149.16;;;8.20;88.83
13407;BME280;6774;48.208;10.766;2024-03-17T05:52:41;96147.19;;;8.22;88.78
13407;BME280;6774;48.208;10.766;2024-03-17T05:55:08;96148.53;;;8.26;89.18
13407;BME280;6774;48.208;10.766;2024-03-17T05:57:36;96143.78;;;8.30;88.80
13407;BME280;6774;48.208;10.766;2024-03-17T06:00:04;96144.28;;;8.34;88.78
13407;BME280;6774;48.208;10.766;2024-03-17T06:02:37;96144.50;;;8.40;88.70
13407;BME280;6774;48.208;10.766;2024-03-17T06:05:05;96147.81;;;8.42;89.32
13407;BME280;6774;48.208;10.766;2024-03-17T06:07:35;96151.59;;;8.48;88.96
13407;BME280;6774;48.208;10.766;2024-03-17T06:10:03;96156.56;;;8.51;88.67
13407;BME280;6774;48.208;10.766;2024-03-17T06:12:29;96149.81;;;8.57;89.06
13407;BME280;6774;48.208;10.766;2024-03-17T06:14:56;96153.31;;;8.65;88.87
13407;BME280;6774;48.208;10.766;2024-03-17T06:17:23;96144.13;;;8.69;88.82
13407;BME280;6774;48.208;10.766;2024-03-17T06:19:50;96150.38;;;8.76;88.43
13407;BME280;6774;48.208;10.766;2024-03-17T06:22:18;96151.06;;;8.78;88.58
13407;BME280;6774;48.208;10.766;2024-03-17T06:24:45;96143.66;;;8.82;88.92
13407;BME280;6774;48.208;10.766;2024-03-17T06:27:11;96154.53;;;8.87;88.91
13407;BME280;6774;48.208;10.766;2024-03-17T06:29:40;96153.03;;;8.84;88.36
13407;BME280;6774;48.208;10.766;2024-03-17T06:32:08;96145.78;;;8.87;88.17
13407;BME280;6774;48.208;10.766;2024-03-17T06:34:35;96146.50;;;8.97;88.40
13407;BME280;6774;48.208;10.766;2024-03-17T06:37:02;96155.53;;;9.02;88.66
13407;BME280;6774;48.208;10.766;2024-03-17T06:39:30;96147.31;;;9.13;88.23
13407;BME280;6774;48.208;10.766;2024-03-17T06:41:56;96140.25;;;9.22;88.23
13407;BME280;6774;48.208;10.766;2024-03-17T06:44:23;96140.91;;;9.32;88.32
13407;BME280;6774;48.208;10.766;2024-03-17T06:46:52;96146.69;;;9.36;87.99
13407;BME280;6774;48.208;10.766;2024-03-17T06:49:19;96139.63;;;9.45;88.19
13407;BME280;6774;48.208;10.766;2024-03-17T06:51:46;96144.72;;;9.54;87.66
13407;BME280;6774;48.208;10.766;2024-03-17T06:54:13;96148.47;;;9.60;87.66
13407;BME280;6774;48.208;10.766;2024-03-17T06:56:42;96147.84;;;9.66;87.14
13407;BME280;6774;48.208;10.766;2024-03-17T06:59:09;96146.84;;;9.75;87.48
13407;BME280;6774;48.208;10.766;2024-03-17T07:01:35;96147.16;;;9.80;87.24
13407;BME280;6774;48.208;10.766;2024-03-17T07:04:02;96145.19;;;9.90;86.94
13407;BME280;6774;48.208;10.766;2024-03-17T07:06:29;96150.44;;;9.98;86.63
13407;BME280;6774;48.208;10.766;2024-03-17T07:08:56;96151.38;;;10.06;86.67
13407;BME280;6774;48.208;10.766;2024-03-17T07:11:22;96151.53;;;10.12;86.02
13407;BME280;6774;48.208;10.766;2024-03-17T07:13:51;96141.78;;;10.21;85.62
13407;BME280;6774;48.208;10.766;2024-03-17T07:16:18;96146.25;;;10.29;85.44
13407;BME280;6774;48.208;10.766;2024-03-17T07:18:47;96143.78;;;10.35;84.71
13407;BME280;6774;48.208;10.766;2024-03-17T07:21:15;96142.75;;;10.44;84.30
13407;BME280;6774;48.208;10.766;2024-03-17T07:23:43;96146.00;;;10.54;83.86
13407;BME280;6774;48.208;10.766;2024-03-17T07:26:10;96148.28;;;10.58;83.51
13407;BME280;6774;48.208;10.766;2024-03-17T07:28:37;96147.25;;;10.67;83.17
13407;BME280;6774;48.208;10.766;2024-03-17T07:31:08;96143.25;;;10.79;83.14
13407;BME280;6774;48.208;10.766;2024-03-17T07:33:36;96140.53;;;10.87;82.75
13407;BME280;6774;48.208;10.766;2024-03-17T07:36:03;96137.22;;;10.93;82.47
13407;BME280;6774;48.208;10.766;2024-03-17T07:38:34;96139.28;;;11.06;82.10
13407;BME280;6774;48.208;10.766;2024-03-17T07:41:02;96134.44;;;11.18;81.29
13407;BME280;6774;48.208;10.766;2024-03-17T07:43:31;96129.25;;;11.24;81.61
13407;BME280;6774;48.208;10.766;2024-03-17T07:45:59;96139.00;;;11.24;81.19
13407;BME280;6774;48.208;10.766;2024-03-17T07:48:27;96139.94;;;11.31;80.70
13407;BME280;6774;48.208;10.766;2024-03-17T07:50:56;96136.88;;;11.42;80.92
13407;BME280;6774;48.208;10.766;2024-03-17T07:53:22;96132.19;;;11.52;80.89
13407;BME280;6774;48.208;10.766;2024-03-17T07:55:57;96126.53;;;11.55;80.29
13407;BME280;6774;48.208;10.766;2024-03-17T07:58:25;96123.34;;;11.60;79.67
13407;BME280;6774;48.208;10.766;2024-03-17T08:00:52;96123.00;;;11.63;79.67
13407;BME280;6774;48.208;10.766;2024-03-17T08:03:19;96129.50;;;11.75;80.16
13407;BME280;6774;48.208;10.766;2024-03-17T08:05:49;96140.78;;;11.92;79.80
13407;BME280;6774;48.208;10.766;2024-03-17T08:08:16;96136.50;;;12.06;79.31
13407;BME280;6774;48.208;10.766;2024-03-17T08:10:43;96131.13;;;12.29;79.17
13407;BME280;6774;48.208;10.766;2024-03-17T08:13:10;96132.94;;;12.58;79.53
13407;BME280;6774;48.208;10.766;2024-03-17T08:15:38;96118.06;;;12.71;77.86
13407;BME280;6774;48.208;10.766;2024-03-17T08:18:05;96122.44;;;13.00;77.61
13407;BME280;6774;48.208;10.766;2024-03-17T08:20:36;96117.66;;;13.10;76.42
13407;BME280;6774;48.208;10.766;2024-03-17T08:23:04;96113.91;;;13.20;75.37
13407;BME280;6774;48.208;10.766;2024-03-17T08:25:32;96114.34;;;13.45;75.08
13407;BME280;6774;48.208;10.766;2024-03-17T08:27:59;96105.16;;;13.69;74.70
13407;BME280;6774;48.208;10.766;2024-03-17T08:30:26;96105.31;;;13.88;74.08
13407;BME280;6774;48.208;10.766;2024-03-17T08:32:53;96097.59;;;13.93;73.52
13407;BME280;6774;48.208;10.766;2024-03-17T08:35:20;96090.56;;;14.14;73.66
13407;BME280;6774;48.208;10.766;2024-03-17T08:37:46;96081.47;;;14.30;72.35
13407;BME280;6774;48.208;10.766;2024-03-17T08:40:15;96084.00;;;14.44;72.92
13407;BME280;6774;48.208;10.766;2024-03-17T08:42:41;96086.59;;;14.66;71.15
13407;BME280;6774;48.208;10.766;2024-03-17T08:45:10;96073.13;;;14.80;69.90
13407;BME280;6774;48.208;10.766;2024-03-17T08:47:37;96085.25;;;15.03;69.86
13407;BME280;6774;48.208;10.766;2024-03-17T08:50:05;96080.78;;;15.17;69.17
13407;BME280;6774;48.208;10.766;2024-03-17T08:52:33;96089.84;;;15.55;69.09
13407;BME280;6774;48.208;10.766;2024-03-17T08:55:00;96082.91;;;15.68;67.67
13407;BME280;6774;48.208;10.766;2024-03-17T08:57:30;96079.84;;;15.84;66.87
13407;BME280;6774;48.208;10.766;2024-03-17T08:59:56;96072.03;;;15.89;66.26
13407;BME280;6774;48.208;10.766;2024-03-17T09:02:23;96074.69;;;16.02;66.12
13407;BME280;6774;48.208;10.766;2024-03-17T09:04:50;96072.84;;;15.96;65.79
13407;BME280;6774;48.208;10.766;2024-03-17T09:07:17;96078.94;;;16.16;65.54
13407;BME280;6774;48.208;10.766;2024-03-17T09:09:46;96073.19;;;16.33;65.04
13407;BME280;6774;48.208;10.766;2024-03-17T09:12:13;96085.00;;;16.50;63.20
13407;BME280;6774;48.208;10.766;2024-03-17T09:14:42;96079.19;;;16.80;64.08
13407;BME280;6774;48.208;10.766;2024-03-17T09:17:09;96075.13;;;16.70;60.64
13407;BME280;6774;48.208;10.766;2024-03-17T09:19:35;96078.81;;;16.69;60.69
13407;BME280;6774;48.208;10.766;2024-03-17T09:22:02;96069.28;;;16.93;62.10
13407;BME280;6774;48.208;10.766;2024-03-17T09:24:30;96073.84;;;16.80;60.94
13407;BME280;6774;48.208;10.766;2024-03-17T09:26:57;96065.56;;;16.94;61.21
13407;BME280;6774;48.208;10.766;2024-03-17T09:29:24;96073.66;;;17.19;62.11
13407;BME280;6774;48.208;10.766;2024-03-17T09:31:52;96065.91;;;17.11;61.25
13407;BME280;6774;48.208;10.766;2024-03-17T09:34:19;96056.06;;;17.05;60.32
13407;BME280;6774;48.208;10.766;2024-03-17T09:36:45;96060.34;;;16.74;59.41
13407;BME280;6774;48.208;10.766;2024-03-17T09:39:13;96058.00;;;16.40;59.85
13407;BME280;6774;48.208;10.766;2024-03-17T09:41:40;96051.72;;;16.14;61.46
13407;BME280;6774;48.208;10.766;2024-03-17T09:44:11;96046.94;;;16.36;61.43
13407;BME280;6774;48.208;10.766;2024-03-17T09:46:39;96037.81;;;17.33;61.32
13407;BME280;6774;48.208;10.766;2024-03-17T09:52:00;96045.47;;;17.30;59.09
13407;BME280;6774;48.208;10.766;2024-03-17T09:54:28;96043.16;;;17.33;59.49
13407;BME280;6774;48.208;10.766;2024-03-17T09:56:54;96039.38;;;17.16;59.64
13407;BME280;6774;48.208;10.766;2024-03-17T09:59:21;96041.50;;;17.89;58.92
13407;BME280;6774;48.208;10.766;2024-03-17T10:01:48;96036.47;;;18.36;56.66
13407;BME280;6774;48.208;10.766;2024-03-17T10:04:31;96033.38;;;18.75;55.38
13407;BME280;6774;48.208;10.766;2024-03-17T10:06:59;96025.44;;;19.11;54.93
13407;BME280;6774;48.208;10.766;2024-03-17T10:09:26;96027.69;;;19.14;53.76
13407;BME280;6774;48.208;10.766;2024-03-17T10:11:57;96028.09;;;18.99;52.86
13407;BME280;6774;48.208;10.766;2024-03-17T10:14:24;96035.47;;;19.15;53.91
13407;BME280;6774;48.208;10.766;2024-03-17T10:16:51;96028.50;;;19.14;54.03
13407;BME280;6774;48.208;10.766;2024-03-17T10:19:22;96022.44;;;19.60;52.77
13407;BME280;6774;48.208;10.766;2024-03-17T10:21:49;96024.09;;;19.85;53.34
13407;BME280;6774;48.208;10.766;2024-03-17T10:24:20;96023.59;;;20.35;52.08
13407;BME280;6774;48.208;10.766;2024-03-17T10:26:49;96021.09;;;20.68;50.90
13407;BME280;6774;48.208;10.766;2024-03-17T10:29:21;96006.72;;;21.32;50.79
13407;BME280;6774;48.208;10.766;2024-03-17T10:31:50;96012.91;;;21.49;49.99
13407;BME280;6774;48.208;10.766;2024-03-17T10:34:17;96012.25;;;21.42;49.26
13407;BME280;6774;48.208;10.766;2024-03-17T10:36:45;96017.44;;;20.74;49.46
13407;BME280;6774;48.208;10.766;2024-03-17T10:39:23;96012.84;;;20.87;49.79
13407;BME280;6774;48.208;10.766;2024-03-17T10:41:56;96010.75;;;20.37;49.90
13407;BME280;6774;48.208;10.766;2024-03-17T10:44:23;96007.31;;;20.01;50.73
13407;BME280;6774;48.208;10.766;2024-03-17T10:46:51;96001.22;;;19.47;51.55
13407;BME280;6774;48.208;10.766;2024-03-17T10:49:21;96011.38;;;19.03;54.18
13407;BME280;6774;48.208;10.766;2024-03-17T10:51:53;96003.94;;;19.06;53.06
13407;BME280;6774;48.208;10.766;2024-03-17T10:54:25;96005.66;;;18.70;53.87
13407;BME280;6774;48.208;10.766;2024-03-17T10:56:55;96009.25;;;18.09;55.79
13407;BME280;6774;48.208;10.766;2024-03-17T10:59:28;96009.59;;;17.76;54.70
13407;BME280;6774;48.208;10.766;2024-03-17T11:02:01;96005.69;;;17.97;54.75
13407;BME280;6774;48.208;10.766;2024-03-17T11:04:28;96004.78;;;17.84;54.46
13407;BME280;6774;48.208;10.766;2024-03-17T11:06:55;96000.25;;;17.60;54.63
13407;BME280;6774;48.208;10.766;2024-03-17T11:09:25;95999.34;;;17.73;53.34
13407;BME280;6774;48.208;10.766;2024-03-17T11:11:52;96003.06;;;17.90;52.12
13407;BME280;6774;48.208;10.766;2024-03-17T11:14:19;96003.75;;;17.85;52.95
13407;BME280;6774;48.208;10.766;2024-03-17T11:16:48;96006.44;;;18.04;53.58
13407;BME280;6774;48.208;10.766;2024-03-17T11:19:16;95997.31;;;18.11;53.18
13407;BME280;6774;48.208;10.766;2024-03-17T11:21:43;96010.00;;;18.16;53.38
13407;BME280;6774;48.208;10.766;2024-03-17T11:24:19;96000.88;;;18.24;53.47
13407;BME280;6774;48.208;10.766;2024-03-17T11:26:47;96012.25;;;17.76;53.32
13407;BME280;6774;48.208;10.766;2024-03-17T11:29:27;96013.53;;;18.10;53.33
13407;BME280;6774;48.208;10.766;2024-03-17T11:31:55;96016.59;;;18.13;54.90
13407;BME280;6774;48.208;10.766;2024-03-17T11:37:07;96009.69;;;18.06;52.90
13407;BME280;6774;48.208;10.766;2024-03-17T11:39:46;96007.91;;;17.31;54.22
13407;BME280;6774;48.208;10.766;2024-03-17T11:42:16;96007.47;;;16.65;54.78
13407;BME280;6774;48.208;10.766;2024-03-17T11:44:43;96004.66;;;16.53;55.72
13407;BME280;6774;48.208;10.766;2024-03-17T11:47:10;96000.91;;;16.67;56.03
13407;BME280;6774;48.208;10.766;2024-03-17T11:49:38;95995.47;;;16.87;55.93
13407;BME280;6774;48.208;10.766;2024-03-17T11:52:08;95990.94;;;16.56;55.24
13407;BME280;6774;48.208;10.766;2024-03-17T11:54:35;95991.56;;;16.45;57.01
13407;BME280;6774;48.208;10.766;2024-03-17T11:57:03;95994.44;;;16.50;57.62
13407;BME280;6774;48.208;10.766;2024-03-17T11:59:33;95987.66;;;16.09;59.59
13407;BME280;6774;48.208;10.766;2024-03-17T12:02:00;95983.09;;;16.16;59.17
13407;BME280;6774;48.208;10.766;2024-03-17T12:04:28;95984.63;;;15.79;58.07
13407;BME280;6774;48.208;10.766;2024-03-17T12:06:56;95983.16;;;16.03;60.28
13407;BME280;6774;48.208;10.766;2024-03-17T12:09:23;95976.47;;;16.39;58.27
13407;BME280;6774;48.208;10.766;2024-03-17T12:12:03;95971.81;;;16.66;56.42
13407;BME280;6774;48.208;10.766;2024-03-17T12:14:30;95960.28;;;16.78;56.30
13407;BME280;6774;48.208;10.766;2024-03-17T12:16:59;95964.81;;;17.28;56.01
13407;BME280;6774;48.208;10.766;2024-03-17T12:19:25;95954.66;;;18.05;56.51
13407;BME280;6774;48.208;10.766;2024-03-17T12:21:54;95948.78;;;17.78;55.63
13407;BME280;6774;48.208;10.766;2024-03-17T12:24:21;95955.22;;;17.45;56.70
13407;BME280;6774;48.208;10.766;2024-03-17T12:26:49;95951.41;;;17.10;56.50
13407;BME280;6774;48.208;10.766;2024-03-17T12:29:26;95953.72;;;17.56;55.36
13407;BME280;6774;48.208;10.766;2024-03-17T12:31:54;95946.34;;;17.76;53.99
13407;BME280;6774;48.208;10.766;2024-03-17T12:34:24;95947.97;;;17.77;53.29
13407;BME280;6774;48.208;10.766;2024-03-17T12:36:52;95946.00;;;17.66;54.02
13407;BME280;6774;48.208;10.766;2024-03-17T12:39:19;95950.72;;;16.96;56.08
13407;BME280;6774;48.208;10.766;2024-03-17T12:42:01;95944.16;;;17.23;54.49
13407;BME280;6774;48.208;10.766;2024-03-17T12:44:27;95944.66;;;17.57;55.70
13407;BME280;6774;48.208;10.766;2024-03-17T12:46:55;95950.91;;;17.01;57.42
13407;BME280;6774;48.208;10.766;2024-03-17T12:49:23;95939.00;;;17.28;56.11
13407;BME280;6774;48.208;10.766;2024-03-17T12:51:52;95931.06;;;16.59;57.36
13407;BME280;6774;48.208;10.766;2024-03-17T12:54:20;95941.38;;;16.04;60.15
13407;BME280;6774;48.208;10.766;2024-03-17T12:56:49;95942.63;;;16.01;58.88
13407;BME280;6774;48.208;10.766;2024-03-17T12:59:40;95938.91;;;16.85;58.89
13407;BME280;6774;48.208;10.766;2024-03-17T13:02:24;95936.03;;;16.87;57.69
13407;BME280;6774;48.208;10.766;2024-03-17T13:05:16;95936.31;;;17.03;56.03
13407;BME280;6774;48.208;10.766;2024-03-17T13:07:44;95933.66;;;16.72;54.87
13407;BME280;6774;48.208;10.766;2024-03-17T13:10:13;95934.00;;;17.32;56.02
13407;BME280;6774;48.208;10.766;2024-03-17T13:12:40;95933.47;;;15.84;58.26
13407;BME280;6774;48.208;10.766;2024-03-17T13:15:10;95940.59;;;15.90;61.01
13407;BME280;6774;48.208;10.766;2024-03-17T13:17:37;95937.78;;;15.58;61.55